Time;durP1;ratioP1;P1;durP2;ratioP2;P2;SDS_P1;SDS_P2;PMS_P1;PMS_P2;Temp;Humidity;BMP_temperature;BMP_pressure;BME280_temperature;BME280_humidity;BME280_pressure;Samples;Min_cycle;Max_cycle;Signal;HPM_P1;HPM_P2
2022/06/17 00:02:05;;;;;;;8.38;2.97;;;17.20;99.90;;;;;;5033382;28;20173;-57
2022/06/17 00:04:31;;;;;;;15.80;3.13;;;17.30;99.90;;;;;;5033349;28;20633;-57
2022/06/17 00:07:01;;;;;;;9.43;2.85;;;17.20;99.90;;;;;;5033427;28;20178;-57
2022/06/17 00:09:29;;;;;;;9.40;3.08;;;17.20;99.90;;;;;;5033382;28;20167;-57
2022/06/17 00:11:55;;;;;;;7.10;3.20;;;17.30;99.90;;;;;;5033300;28;20196;-57
2022/06/17 00:14:25;;;;;;;6.43;2.75;;;17.30;99.90;;;;;;5033216;28;20177;-57
2022/06/17 00:16:51;;;;;;;12.43;3.35;;;17.30;99.90;;;;;;5033211;28;20253;-57
2022/06/17 00:19:18;;;;;;;15.35;3.78;;;17.30;99.90;;;;;;5033133;28;20170;-58
2022/06/17 00:21:47;;;;;;;5.10;3.03;;;17.20;99.90;;;;;;5033099;28;20185;-57
2022/06/17 00:24:33;;;;;;;10.73;3.60;;;17.20;99.90;;;;;;5032996;28;20691;-57
2022/06/17 00:26:59;;;;;;;7.72;4.40;;;17.20;99.90;;;;;;5036154;28;20181;-57
2022/06/17 00:29:28;;;;;;;8.82;4.68;;;16.90;99.90;;;;;;5050226;28;20706;-57
2022/06/17 00:31:54;;;;;;;12.95;4.78;;;17.00;99.90;;;;;;5047902;28;20170;-57
2022/06/17 00:34:20;;;;;;;8.75;5.28;;;16.80;99.90;;;;;;5032933;28;20180;-58
2022/06/17 00:36:46;;;;;;;12.23;4.70;;;16.70;99.90;;;;;;5032695;28;20172;-57
2022/06/17 00:39:18;;;;;;;10.88;4.78;;;16.70;99.90;;;;;;5032674;28;20675;-57
2022/06/17 00:41:51;;;;;;;9.07;4.55;;;16.70;99.90;;;;;;5032296;28;20204;-58
2022/06/17 00:44:45;;;;;;;12.88;4.18;;;16.70;99.90;;;;;;5038767;28;20264;-57
2022/06/17 00:47:35;;;;;;;7.80;3.72;;;16.60;99.90;;;;;;5052549;28;20173;-58
2022/06/17 00:50:26;;;;;;;9.85;3.35;;;16.60;99.90;;;;;;5052493;28;20323;-57
2022/06/17 00:53:30;;;;;;;7.90;3.72;;;16.60;99.90;;;;;;5052120;28;20225;-57
2022/06/17 00:55:58;;;;;;;10.25;3.15;;;16.50;99.90;;;;;;4990667;28;20181;-57
2022/06/17 00:58:25;;;;;;;6.18;3.05;;;16.50;99.90;;;;;;5041890;28;20203;-57
2022/06/17 01:00:57;;;;;;;7.03;2.92;;;16.40;99.90;;;;;;5052275;28;20176;-57
2022/06/17 01:03:32;;;;;;;8.43;2.60;;;16.40;99.90;;;;;;5052183;28;20162;-60
2022/06/17 01:06:05;;;;;;;9.10;3.22;;;16.40;99.90;;;;;;5052193;28;20260;-57
2022/06/17 01:11:32;;;;;;;6.45;3.13;;;16.40;99.90;;;;;;5052268;28;20223;-57
2022/06/17 01:13:59;;;;;;;10.05;3.38;;;16.30;99.90;;;;;;5051934;28;20172;-57
2022/06/17 01:16:32;;;;;;;9.65;3.60;;;16.40;99.90;;;;;;5051871;28;20640;-57
2022/06/17 01:19:03;;;;;;;7.50;3.30;;;16.40;99.90;;;;;;5051813;28;20238;-57
2022/06/17 01:21:47;;;;;;;7.45;3.50;;;16.40;99.90;;;;;;5039836;28;20205;-57
2022/06/17 01:24:14;;;;;;;9.38;3.47;;;16.30;99.90;;;;;;5031899;28;20527;-56
2022/06/17 01:26:40;;;;;;;7.47;3.53;;;16.30;99.90;;;;;;5031794;28;20705;-57
2022/06/17 01:29:15;;;;;;;7.38;3.40;;;16.20;99.90;;;;;;5031913;28;20563;-57
2022/06/17 01:31:47;;;;;;;11.68;3.30;;;16.20;99.90;;;;;;5031660;28;20201;-57
2022/06/17 01:34:13;;;;;;;9.55;3.80;;;16.20;99.90;;;;;;5030453;28;20231;-57
2022/06/17 01:36:56;;;;;;;12.25;3.30;;;16.10;99.90;;;;;;5031779;28;20586;-57
2022/06/17 01:39:27;;;;;;;9.85;3.47;;;16.20;99.90;;;;;;5031765;28;20645;-57
2022/06/17 01:41:59;;;;;;;15.13;3.80;;;;;;;;;;5031681;28;20252;-57
2022/06/17 01:44:33;;;;;;;11.57;3.63;;;16.10;99.90;;;;;;5031505;28;20158;-57
2022/06/17 01:47:02;;;;;;;4.85;3.00;;;16.10;99.90;;;;;;5031411;28;20177;-57
2022/06/17 01:49:30;;;;;;;7.78;2.97;;;16.00;99.90;;;;;;5031286;28;20181;-57
2022/06/17 01:52:04;;;;;;;12.32;3.33;;;16.00;99.90;;;;;;5031160;28;20224;-57
2022/06/17 01:54:35;;;;;;;12.35;3.35;;;16.10;99.90;;;;;;5030493;28;20189;-57
2022/06/17 01:57:03;;;;;;;18.80;3.88;;;16.00;99.90;;;;;;5031329;28;20177;-57
2022/06/17 01:59:40;;;;;;;10.13;3.35;;;16.00;99.90;;;;;;5031152;28;20184;-57
2022/06/17 02:02:07;;;;;;;13.20;3.45;;;15.90;99.90;;;;;;5031219;28;20189;-56
2022/06/17 02:04:37;;;;;;;15.18;3.95;;;15.90;99.90;;;;;;5031182;28;20181;-57
2022/06/17 02:07:22;;;;;;;22.13;4.38;;;15.80;99.90;;;;;;5031084;28;20162;-56
2022/06/17 02:09:49;;;;;;;12.48;3.65;;;15.70;99.90;;;;;;5031069;28;20271;-57
2022/06/17 02:12:18;;;;;;;21.52;4.32;;;15.70;99.90;;;;;;5031112;28;20272;-57
2022/06/17 02:14:46;;;;;;;18.55;4.05;;;15.70;99.90;;;;;;5030962;28;20170;-56
2022/06/17 02:17:11;;;;;;;7.15;3.25;;;15.70;99.90;;;;;;5030906;28;20170;-57
2022/06/17 02:19:40;;;;;;;15.00;3.58;;;15.60;99.90;;;;;;5031039;28;20174;-57
2022/06/17 02:22:23;;;;;;;10.23;3.33;;;15.60;99.90;;;;;;5030951;28;20197;-56
2022/06/17 02:24:51;;;;;;;11.68;3.60;;;15.70;99.90;;;;;;5031004;28;20174;-57
2022/06/17 02:27:18;;;;;;;11.02;3.13;;;16.50;99.90;;;;;;5030770;28;20173;-57
2022/06/17 02:29:44;;;;;;;13.38;3.50;;;15.70;99.90;;;;;;5030684;28;20174;-57
2022/06/17 02:32:11;;;;;;;12.40;3.40;;;15.70;99.90;;;;;;5030828;28;20181;-57
2022/06/17 02:34:51;;;;;;;8.80;3.15;;;15.70;99.90;;;;;;5030761;28;20260;-57
2022/06/17 02:37:19;;;;;;;5.38;2.50;;;15.90;99.90;;;;;;5030660;28;20173;-57
2022/06/17 02:39:50;;;;;;;7.55;2.72;;;15.90;99.90;;;;;;5030858;28;20201;-57
2022/06/17 02:42:31;;;;;;;6.65;2.55;;;15.90;99.90;;;;;;5030740;28;20548;-57
2022/06/17 02:45:13;;;;;;;11.20;2.50;;;16.00;99.90;;;;;;5030718;28;20162;-57
2022/06/17 02:47:39;;;;;;;6.05;2.40;;;16.20;99.90;;;;;;5030708;28;20176;-58
2022/06/17 02:50:16;;;;;;;9.43;2.50;;;16.40;99.90;;;;;;5030619;28;20224;-57
2022/06/17 02:52:43;;;;;;;9.32;2.35;;;16.60;99.90;;;;;;5012547;28;20249;-58
2022/06/17 02:55:25;;;;;;;9.73;2.00;;;17.10;99.90;;;;;;5030661;28;20637;-58
2022/06/17 02:57:56;;;;;;;7.47;1.95;;;17.10;99.90;;;;;;5030514;28;20231;-58
2022/06/17 03:00:22;;;;;;;7.03;2.00;;;17.30;99.90;;;;;;5030415;28;20247;-57
2022/06/17 03:02:52;;;;;;;10.02;2.03;;;17.50;99.90;;;;;;5030225;28;20609;-57
2022/06/17 03:05:23;;;;;;;6.32;1.70;;;17.70;99.90;;;;;;5031994;28;20208;-58
2022/06/17 03:07:49;;;;;;;7.20;1.88;;;17.60;99.90;;;;;;5034412;28;20181;-58
2022/06/17 03:10:23;;;;;;;9.10;2.53;;;17.60;99.90;;;;;;5034364;28;20306;-58
2022/06/17 03:12:56;;;;;;;4.63;2.50;;;17.30;99.90;;;;;;5034358;28;20166;-58
2022/06/17 03:15:23;;;;;;;10.13;3.00;;;17.10;99.90;;;;;;5034285;28;20166;-58
2022/06/17 03:17:48;;;;;;;5.70;2.60;;;16.90;99.90;;;;;;5034261;28;20176;-58
2022/06/17 03:20:34;;;;;;;7.65;2.85;;;16.70;99.90;;;;;;5034205;28;20252;-58
2022/06/17 03:23:25;;;;;;;12.30;2.70;;;16.60;99.90;;;;;;5034265;28;20192;-58
2022/06/17 03:26:03;;;;;;;13.27;3.42;;;16.40;99.90;;;;;;5032770;28;20166;-58
2022/06/17 03:28:33;;;;;;;8.43;2.50;;;16.30;99.90;;;;;;5038077;28;20192;-58
2022/06/17 03:31:07;;;;;;;10.70;2.95;;;16.20;99.90;;;;;;5053736;28;20683;-58
2022/06/17 03:33:41;;;;;;;6.70;2.45;;;16.10;99.90;;;;;;5044742;28;20173;-58
2022/06/17 03:36:36;;;;;;;8.80;2.75;;;16.00;99.90;;;;;;5033774;28;20251;-57
2022/06/17 03:39:07;;;;;;;10.40;2.72;;;15.90;99.90;;;;;;5033773;28;20529;-57
2022/06/17 03:41:52;;;;;;;8.95;2.83;;;15.80;99.90;;;;;;5033953;28;20170;-56
2022/06/17 03:44:22;;;;;;;10.65;2.72;;;15.80;99.90;;;;;;5034148;28;20253;-56
2022/06/17 03:46:52;;;;;;;6.80;2.60;;;15.80;99.90;;;;;;5051746;28;20597;-56
2022/06/17 03:49:28;;;;;;;7.63;2.72;;;15.70;99.90;;;;;;5053913;28;20173;-56
2022/06/17 03:52:02;;;;;;;7.40;2.42;;;15.60;99.90;;;;;;5053440;28;20224;-56
2022/06/17 03:54:28;;;;;;;5.45;2.58;;;15.60;99.90;;;;;;5053757;28;20640;-57
2022/06/17 03:56:53;;;;;;;8.35;2.65;;;15.60;99.90;;;;;;5053796;28;20180;-57
2022/06/17 03:59:26;;;;;;;5.00;2.13;;;15.50;99.90;;;;;;5053697;28;20590;-57
2022/06/17 04:01:58;;;;;;;8.40;2.50;;;15.60;99.90;;;;;;5053745;28;20173;-57
2022/06/17 04:04:28;;;;;;;4.10;2.15;;;15.50;99.90;;;;;;5053587;28;20174;-57
2022/06/17 04:06:58;;;;;;;4.72;2.20;;;15.50;99.90;;;;;;5053544;28;20546;-57
2022/06/17 04:09:30;;;;;;;9.95;2.45;;;15.50;99.90;;;;;;5053392;28;20173;-56
2022/06/17 04:12:04;;;;;;;4.95;2.30;;;15.50;99.90;;;;;;5053611;28;20371;-56
2022/06/17 04:14:42;;;;;;;7.32;2.00;;;15.60;99.90;;;;;;5053258;28;20169;-56
2022/06/17 04:17:20;;;;;;;6.80;2.20;;;15.50;99.90;;;;;;5052458;28;20323;-56
2022/06/17 04:19:54;;;;;;;5.45;2.15;;;15.50;99.90;;;;;;5053806;28;20177;-57
2022/06/17 04:22:25;;;;;;;9.70;2.67;;;15.60;99.90;;;;;;5043343;28;20178;-57
2022/06/17 04:24:59;;;;;;;3.88;2.20;;;15.50;99.90;;;;;;5033470;28;20170;-57
2022/06/17 04:27:56;;;;;;;4.25;1.83;;;15.50;99.90;;;;;;5031968;28;20185;-57
2022/06/17 04:30:17;;;;;;;7.00;2.58;;;15.50;99.90;;;;;;5032809;28;20206;-58
2022/06/17 04:32:43;;;;;;;7.80;2.42;;;15.60;99.90;;;;;;5033098;28;20181;-57
2022/06/17 04:35:12;;;;;;;7.10;2.40;;;15.60;99.90;;;;;;5033184;28;20586;-57
2022/06/17 04:37:39;;;;;;;6.30;2.40;;;15.60;99.90;;;;;;5031855;28;20170;-58
2022/06/17 04:40:12;;;;;;;7.45;2.55;;;15.70;99.90;;;;;;5033008;28;20174;-59
2022/06/17 04:42:41;;;;;;;13.15;2.78;;;15.60;99.90;;;;;;5032978;28;20185;-56
2022/06/17 04:45:24;;;;;;;8.20;2.97;;;15.70;99.90;;;;;;5032924;28;20252;-56
2022/06/17 04:47:49;;;;;;;13.07;2.65;;;16.90;99.90;;;;;;5032833;28;20173;-57
2022/06/17 04:50:18;;;;;;;4.60;2.28;;;15.70;99.90;;;;;;5032890;28;20202;-57
2022/06/17 04:52:47;;;;;;;5.57;2.25;;;15.70;99.90;;;;;;5032696;28;20222;-57
2022/06/17 04:55:28;;;;;;;5.78;2.47;;;15.60;99.90;;;;;;5032838;28;20174;-57
2022/06/17 04:57:55;;;;;;;15.27;2.72;;;15.60;99.90;;;;;;5032680;28;20201;-57
2022/06/17 05:00:24;;;;;;;7.38;2.72;;;15.70;99.90;;;;;;5032797;28;20173;-57
2022/06/17 05:02:50;;;;;;;12.63;2.35;;;15.70;99.90;;;;;;5032577;28;20173;-58
2022/06/17 05:05:33;;;;;;;7.85;2.65;;;15.70;99.90;;;;;;5032632;28;20722;-57
2022/06/17 05:08:01;;;;;;;9.82;3.25;;;15.80;99.90;;;;;;5032487;28;20260;-57
2022/06/17 05:10:32;;;;;;;6.38;2.53;;;15.80;99.90;;;;;;5032366;28;20206;-57
2022/06/17 05:13:06;;;;;;;10.27;2.75;;;15.80;99.90;;;;;;5032417;28;20166;-56
2022/06/17 05:15:32;;;;;;;9.85;2.72;;;15.80;99.90;;;;;;5032354;28;20649;-58
2022/06/17 05:17:58;;;;;;;7.13;2.70;;;16.00;99.90;;;;;;5032330;28;20173;-57
2022/06/17 05:20:25;;;;;;;8.10;2.85;;;15.90;99.90;;;;;;5032258;28;20170;-58
2022/06/17 05:22:59;;;;;;;16.13;2.70;;;15.90;99.90;;;;;;5032155;28;20177;-57
2022/06/17 05:25:37;;;;;;;15.07;2.97;;;16.00;99.90;;;;;;5032372;28;20280;-57
2022/06/17 05:28:06;;;;;;;10.18;2.70;;;16.00;99.90;;;;;;5032222;28;20219;-56
2022/06/17 05:30:38;;;;;;;10.77;2.30;;;16.00;99.90;;;;;;5032029;28;20220;-57
2022/06/17 05:33:04;;;;;;;10.80;3.13;;;16.00;99.90;;;;;;5032047;28;20253;-57
2022/06/17 05:35:30;;;;;;;10.38;3.08;;;16.10;99.90;;;;;;5031887;28;20262;-57
2022/06/17 05:37:55;;;;;;;8.52;3.17;;;16.20;99.90;;;;;;5032305;28;20181;-57
2022/06/17 05:40:21;;;;;;;8.07;2.50;;;16.30;99.90;;;;;;5031927;28;20676;-57
2022/06/17 05:42:47;;;;;;;14.13;2.90;;;16.30;99.90;;;;;;5031872;28;20166;-57
2022/06/17 05:45:23;;;;;;;12.57;2.67;;;16.40;99.90;;;;;;5031733;28;20260;-57
2022/06/17 05:47:49;;;;;;;12.07;3.03;;;16.50;99.90;;;;;;5031701;28;20196;-57
2022/06/17 05:50:16;;;;;;;12.65;2.42;;;16.60;99.90;;;;;;5031606;28;20672;-57
2022/06/17 05:52:55;;;;;;;7.47;2.67;;;16.80;99.90;;;;;;5031372;28;20225;-57
2022/06/17 05:55:22;;;;;;;12.80;2.63;;;16.90;99.90;;;;;;5031713;28;20173;-57
2022/06/17 05:57:48;;;;;;;4.65;2.13;;;17.00;99.90;;;;;;5031551;28;20264;-57
2022/06/17 06:00:15;;;;;;;11.45;2.63;;;17.20;99.90;;;;;;5031448;28;20197;-57
2022/06/17 06:02:41;;;;;;;10.23;2.55;;;17.30;99.90;;;;;;5031406;28;20176;-57
2022/06/17 06:05:08;;;;;;;7.40;2.47;;;17.40;99.90;;;;;;5031343;28;20215;-57
2022/06/17 06:07:33;;;;;;;5.78;2.30;;;17.60;99.90;;;;;;5031244;28;20712;-57
2022/06/17 06:09:59;;;;;;;8.45;2.45;;;17.70;99.90;;;;;;5031270;28;20312;-57
2022/06/17 06:12:53;;;;;;;8.02;2.38;;;17.80;99.90;;;;;;5031323;28;20205;-57
2022/06/17 06:15:14;;;;;;;8.13;2.17;;;18.00;99.90;;;;;;5031094;28;20186;-58
2022/06/17 06:17:39;;;;;;;9.43;2.40;;;18.10;99.90;;;;;;5031347;28;20238;-58
2022/06/17 06:20:05;;;;;;;8.60;2.30;;;18.20;99.90;;;;;;5031206;28;20648;-57
2022/06/17 06:22:31;;;;;;;9.77;2.42;;;18.40;99.90;;;;;;5031227;28;20231;-58
2022/06/17 06:24:57;;;;;;;7.45;2.20;;;18.50;99.90;;;;;;5031110;28;20536;-58
2022/06/17 06:27:22;;;;;;;7.88;2.10;;;18.70;99.90;;;;;;5033821;28;20966;-57
2022/06/17 06:29:48;;;;;;;3.35;2.13;;;18.80;99.90;;;;;;5029768;28;20220;-58
2022/06/17 06:32:14;;;;;;;8.85;2.20;;;18.90;99.90;;;;;;5031053;28;20257;-57
2022/06/17 06:34:39;;;;;;;7.05;2.40;;;19.00;99.90;;;;;;5031034;28;20205;-57
2022/06/17 06:37:05;;;;;;;6.43;2.35;;;19.10;99.90;;;;;;5031070;28;20308;-56
2022/06/17 06:39:31;;;;;;;3.88;2.08;;;19.20;99.90;;;;;;5030458;28;20637;-57
2022/06/17 06:41:56;;;;;;;8.32;2.13;;;19.30;99.90;;;;;;5030848;28;20174;-57
2022/06/17 06:44:22;;;;;;;4.35;1.95;;;19.40;99.90;;;;;;5030882;28;20174;-57
2022/06/17 06:46:47;;;;;;;5.55;1.80;;;19.50;99.90;;;;;;5030850;28;20170;-57
2022/06/17 06:49:13;;;;;;;6.85;1.92;;;19.50;99.90;;;;;;5030791;28;20173;-57
2022/06/17 06:51:39;;;;;;;9.68;2.20;;;19.60;99.90;;;;;;5030593;28;20311;-58
2022/06/17 06:54:05;;;;;;;8.18;2.63;;;19.50;99.90;;;;;;5031264;28;20518;-58
2022/06/17 06:56:30;;;;;;;7.30;2.35;;;19.60;99.90;;;;;;5030711;28;20637;-57
2022/06/17 06:58:56;;;;;;;8.40;2.03;;;19.60;99.90;;;;;;5030864;28;20169;-58
2022/06/17 07:01:21;;;;;;;6.22;2.03;;;19.70;99.90;;;;;;5030908;28;20174;-58
2022/06/17 07:03:47;;;;;;;7.45;2.08;;;19.90;99.90;;;;;;5031465;28;20181;-58
2022/06/17 07:06:13;;;;;;;3.47;2.00;;;19.80;99.90;;;;;;5039042;28;20627;-57
2022/06/17 07:08:39;;;;;;;4.97;1.98;;;19.90;99.90;;;;;;5050418;28;20176;-57
2022/06/17 07:11:07;;;;;;;5.18;2.08;;;20.00;99.90;;;;;;5036901;28;20210;-57
2022/06/17 07:13:33;;;;;;;6.35;2.15;;;20.10;99.90;;;;;;5030725;28;20181;-57
2022/06/17 07:16:00;;;;;;;9.73;2.35;;;20.00;99.90;;;;;;5030477;28;20228;-57
2022/06/17 07:18:31;;;;;;;6.93;2.30;;;20.00;99.90;;;;;;5030609;28;20667;-57
2022/06/17 07:20:59;;;;;;;9.18;2.55;;;20.10;99.90;;;;;;5030447;28;20186;-57
2022/06/17 07:23:32;;;;;;;5.90;2.60;;;20.20;99.90;;;;;;5045444;28;20181;-57
2022/06/17 07:25:59;;;;;;;8.88;2.33;;;20.30;99.90;;;;;;5050521;28;20219;-57
2022/06/17 07:28:26;;;;;;;7.10;2.10;;;20.20;99.90;;;;;;5050366;28;20173;-57
2022/06/17 07:30:54;;;;;;;7.90;2.10;;;20.00;99.90;;;;;;5032328;28;20695;-57
2022/06/17 07:33:21;;;;;;;8.23;2.20;;;20.20;99.90;;;;;;5050345;28;20166;-57
2022/06/17 07:35:53;;;;;;;8.07;2.00;;;20.30;99.90;;;;;;5050186;28;20174;-57
2022/06/17 07:41:06;;;;;;;8.90;2.35;;;20.50;99.90;;;;;;5050475;28;20223;-57
2022/06/17 07:43:33;;;;;;;6.50;2.50;;;20.50;99.90;;;;;;5050248;28;20560;-57
2022/06/17 07:46:00;;;;;;;7.68;2.30;;;20.60;99.90;;;;;;5049998;28;20169;-58
2022/06/17 07:48:27;;;;;;;8.80;2.45;;;20.60;99.90;;;;;;5050029;28;20165;-58
2022/06/17 07:50:58;;;;;;;6.40;2.30;;;20.70;99.90;;;;;;5049955;28;20680;-58
2022/06/17 07:53:25;;;;;;;8.82;2.63;;;20.80;99.90;;;;;;5052931;28;20308;-57
2022/06/17 07:55:52;;;;;;;15.00;2.65;;;20.90;99.90;;;;;;5053655;28;20702;-57
2022/06/17 07:58:18;;;;;;;9.57;3.03;;;21.10;99.90;;;;;;5054016;28;20189;-56
2022/06/17 08:00:45;;;;;;;11.00;2.40;;;21.30;99.90;;;;;;5053566;28;20258;-57
2022/06/17 08:03:12;;;;;;;11.27;2.45;;;21.50;99.90;;;;;;5053609;28;20192;-57
2022/06/17 08:05:41;;;;;;;7.35;2.47;;;21.70;99.90;;;;;;5053535;28;20175;-57
2022/06/17 08:08:08;;;;;;;4.88;2.13;;;21.90;99.90;;;;;;5053473;28;20174;-57
2022/06/17 08:10:35;;;;;;;9.00;2.50;;;22.00;99.90;;;;;;5053450;28;20218;-57
2022/06/17 08:13:05;;;;;;;9.38;2.42;;;22.00;99.90;;;;;;5053406;28;20177;-57
2022/06/17 08:15:31;;;;;;;9.82;2.33;;;22.20;99.90;;;;;;5053185;28;20218;-58
2022/06/17 08:17:57;;;;;;;10.70;2.40;;;22.50;99.90;;;;;;5053457;28;20173;-58
2022/06/17 08:20:34;;;;;;;7.05;2.53;;;22.50;99.90;;;;;;5053371;28;20199;-57
2022/06/17 08:23:02;;;;;;;16.10;2.58;;;22.40;99.90;;;;;;5053253;28;20169;-57
2022/06/17 08:25:29;;;;;;;11.98;2.40;;;22.90;99.90;;;;;;5053115;28;20180;-58
2022/06/17 08:27:57;;;;;;;7.78;2.45;;;23.10;99.90;;;;;;5053115;28;20624;-57
2022/06/17 08:30:25;;;;;;;10.27;2.33;;;23.30;99.90;;;;;;5053031;28;20209;-57
2022/06/17 08:32:53;;;;;;;12.23;2.67;;;23.40;99.90;;;;;;5053218;28;20196;-57
2022/06/17 08:35:23;;;;;;;6.20;2.25;;;23.60;99.90;;;;;;5053091;28;20274;-56
2022/06/17 08:37:56;;;;;;;6.40;2.17;;;24.00;99.90;;;;;;5052925;28;20169;-57
2022/06/17 08:40:51;;;;;;;12.13;2.25;;;24.30;99.90;;;;;;5052777;28;20253;-57
2022/06/17 08:43:26;;;;;;;6.15;2.40;;;24.30;99.90;;;;;;4998551;28;20595;-58
2022/06/17 08:46:19;;;;;;;5.18;2.60;;;24.50;99.90;;;;;;5052928;28;20177;-59
2022/06/17 08:49:22;;;;;;;5.03;2.33;;;24.70;99.90;;;;;;5052798;28;20230;-58
2022/06/17 08:52:03;;;;;;;7.40;1.98;;;24.80;99.90;;;;;;5052419;28;20233;-58
2022/06/17 08:54:56;;;;;;;5.45;2.00;;;24.80;99.90;;;;;;5052780;28;20200;-57
2022/06/17 08:58:05;;;;;;;7.80;2.33;;;24.90;99.90;;;;;;5052446;28;20248;-56
2022/06/17 09:00:51;;;;;;;6.70;2.28;;;25.00;99.90;;;;;;5051997;28;20664;-58
2022/06/17 09:03:47;;;;;;;7.22;2.05;;;25.00;99.90;;;;;;5052083;28;20192;-60
2022/06/17 09:06:40;;;;;;;18.38;3.10;;;25.40;99.90;;;;;;5025820;28;20200;-58
2022/06/17 09:09:43;;;;;;;4.68;2.10;;;25.80;99.90;;;;;;5052545;28;20244;-57
2022/06/17 09:12:35;;;;;;;7.65;2.40;;;25.80;99.90;;;;;;5052425;28;20192;-58
2022/06/17 09:15:19;;;;;;;8.02;2.05;;;26.00;99.90;;;;;;5052415;28;20169;-59
2022/06/17 09:18:13;;;;;;;11.52;2.45;;;26.30;99.90;;;;;;5052350;28;20169;-58
2022/06/17 09:20:44;;;;;;;4.38;1.92;;;26.30;99.90;;;;;;5052480;28;20176;-58
2022/06/17 09:23:15;;;;;;;5.43;2.30;;;26.40;99.90;;;;;;5052151;28;20180;-58
2022/06/17 09:25:43;;;;;;;9.43;2.53;;;26.40;99.90;;;;;;5052070;28;20173;-58
2022/06/17 09:28:40;;;;;;;6.78;2.50;;;26.20;99.90;;;;;;5052140;28;20170;-58
2022/06/17 09:31:17;;;;;;;7.32;2.20;;;26.20;99.90;;;;;;5051831;28;20263;-58
2022/06/17 09:33:57;;;;;;;4.97;2.40;;;26.10;99.90;;;;;;5051946;28;20173;-58
2022/06/17 09:36:33;;;;;;;8.07;2.67;;;26.20;99.90;;;;;;5051788;28;20169;-58
2022/06/17 09:39:00;;;;;;;9.95;2.47;;;26.40;99.90;;;;;;5051833;28;20195;-58
2022/06/17 09:41:49;;;;;;;11.55;2.67;;;26.50;99.90;;;;;;5051634;28;20553;-58
2022/06/17 09:44:22;;;;;;;7.70;2.75;;;26.60;99.90;;;;;;5051650;28;20166;-58
2022/06/17 09:46:56;;;;;;;7.70;2.60;;;26.60;99.90;;;;;;5051575;28;20166;-58
2022/06/17 09:49:36;;;;;;;10.20;2.42;;;26.80;99.90;;;;;;5038898;28;20192;-58
2022/06/17 09:52:12;;;;;;;5.53;2.53;;;27.00;99.90;;;;;;5013727;28;20286;-58
2022/06/17 09:54:50;;;;;;;6.03;2.78;;;27.30;99.90;;;;;;5039912;28;20169;-58
2022/06/17 09:57:24;;;;;;;11.98;2.40;;;27.30;99.90;;;;;;5051459;28;20216;-58
2022/06/17 09:59:56;;;;;;;13.60;2.90;;;27.30;99.90;;;;;;5051314;28;20260;-57
2022/06/17 10:02:33;;;;;;;7.97;2.72;;;27.80;99.90;;;;;;5051752;28;20184;-58
2022/06/17 10:05:01;;;;;;;8.43;2.60;;;27.80;99.90;;;;;;5051174;28;20176;-57
2022/06/17 10:07:40;;;;;;;10.43;2.95;;;27.80;99.90;;;;;;5037592;28;20181;-58
2022/06/17 10:10:28;;;;;;;7.43;2.67;;;27.80;99.90;;;;;;5031008;28;20295;-58
2022/06/17 10:13:27;;;;;;;14.43;2.65;;;27.90;99.90;;;;;;5031342;28;20213;-58
2022/06/17 10:19:16;;;;;;;14.73;2.83;;;27.90;99.90;;;;;;5031460;28;20399;-58
2022/06/17 10:21:47;;;;;;;11.65;3.10;;;27.80;99.90;;;;;;5031162;28;20185;-58
2022/06/17 10:24:45;;;;;;;10.60;2.67;;;28.20;99.90;;;;;;5031203;28;20269;-58
2022/06/17 10:27:25;;;;;;;9.35;2.88;;;28.40;99.90;;;;;;5031125;28;20185;-58
2022/06/17 10:30:13;;;;;;;7.43;2.55;;;28.30;99.90;;;;;;5013119;28;20228;-57
2022/06/17 10:32:46;;;;;;;5.55;2.58;;;28.20;99.90;;;;;;5031030;28;20170;-57
2022/06/17 10:35:23;;;;;;;7.97;2.38;;;28.40;99.90;;;;;;5030963;28;20244;-57
2022/06/17 10:37:49;;;;;;;6.53;2.45;;;28.60;99.90;;;;;;5031058;28;20637;-58
2022/06/17 10:40:17;;;;;;;10.20;2.78;;;28.60;99.90;;;;;;5030883;28;20194;-57
2022/06/17 10:42:46;;;;;;;8.88;2.53;;;28.70;99.90;;;;;;5030895;28;20281;-58
2022/06/17 10:45:15;;;;;;;10.65;2.83;;;29.00;99.90;;;;;;5030867;28;20227;-58
2022/06/17 10:47:56;;;;;;;9.40;2.55;;;29.20;99.90;;;;;;5030952;28;20600;-58
2022/06/17 10:50:26;;;;;;;7.95;2.70;;;29.20;99.90;;;;;;5030719;28;20331;-58
2022/06/17 10:53:13;;;;;;;11.35;2.88;;;29.20;99.90;;;;;;5030521;28;20252;-58
2022/06/17 10:55:55;;;;;;;9.13;2.80;;;29.50;99.90;;;;;;5030868;28;20172;-58
2022/06/17 10:58:33;;;;;;;6.15;2.67;;;29.30;99.90;;;;;;5030846;28;20162;-58
2022/06/17 11:01:15;;;;;;;5.20;2.15;;;29.10;99.90;;;;;;5030744;28;20598;-58
2022/06/17 11:03:45;;;;;;;9.57;3.10;;;28.60;99.90;;;;;;5030599;28;20283;-58
2022/06/17 11:06:22;;;;;;;9.82;2.95;;;28.70;99.90;;;;;;5031101;28;20228;-57
2022/06/17 11:08:48;;;;;;;7.78;2.58;;;29.10;99.90;;;;;;5030857;28;20315;-58
2022/06/17 11:14:03;;;;;;;8.38;2.60;;;29.70;99.90;;;;;;5031001;28;20180;-58
2022/06/17 11:16:37;;;;;;;16.65;3.00;;;30.10;99.90;;;;;;5030614;28;20177;-58
2022/06/17 11:19:10;;;;;;;11.32;2.83;;;30.10;99.90;;;;;;5030654;28;20162;-59
2022/06/17 11:21:42;;;;;;;7.60;3.33;;;29.90;99.90;;;;;;5030498;28;20166;-58
2022/06/17 11:24:30;;;;;;;12.70;2.70;;;29.90;99.90;;;;;;5030722;28;20579;-58
2022/06/17 11:27:42;;;;;;;9.88;3.17;;;30.10;99.90;;;;;;5033078;28;20181;-58
2022/06/17 11:30:22;;;;;;;8.00;2.65;;;30.10;99.90;;;;;;5033814;28;20217;-61
2022/06/17 11:32:49;;;;;;;20.00;3.00;;;30.80;99.90;;;;;;5033017;28;20232;-58
2022/06/17 11:35:18;;;;;;;8.15;2.83;;;30.80;99.90;;;;;;5034391;28;20637;-59
2022/06/17 11:37:47;;;;;;;9.70;3.05;;;30.80;99.90;;;;;;5034187;28;20178;-58
2022/06/17 11:40:18;;;;;;;17.58;3.55;;;30.50;99.90;;;;;;5034114;28;20178;-58
2022/06/17 11:42:58;;;;;;;7.82;3.13;;;30.40;99.90;;;;;;5034224;28;20261;-58
2022/06/17 11:45:30;;;;;;;7.15;3.33;;;30.80;99.90;;;;;;5034166;28;20184;-58
2022/06/17 11:48:24;;;;;;;10.85;2.97;;;30.80;99.90;;;;;;5034058;28;20186;-58
2022/06/17 11:51:01;;;;;;;10.77;3.03;;;31.30;99.90;;;;;;5031848;28;20692;-59
2022/06/17 11:53:28;;;;;;;9.15;3.10;;;30.60;99.90;;;;;;5033732;28;20615;-58
2022/06/17 11:55:54;;;;;;;10.82;3.20;;;30.50;99.90;;;;;;5033894;28;20633;-59
2022/06/17 11:58:20;;;;;;;10.52;3.25;;;30.90;99.90;;;;;;5033756;28;20170;-58
2022/06/17 12:00:55;;;;;;;11.80;3.30;;;31.50;99.90;;;;;;5034024;28;20178;-58
2022/06/17 12:03:29;;;;;;;18.88;3.42;;;31.40;99.90;;;;;;5033780;28;20191;-58
2022/06/17 12:05:59;;;;;;;9.95;3.30;;;32.30;99.90;;;;;;5033743;28;20545;-59
2022/06/17 12:08:36;;;;;;;11.27;3.20;;;32.30;99.90;;;;;;5033760;28;20183;-59
2022/06/17 12:11:05;;;;;;;14.80;3.75;;;32.20;99.90;;;;;;5033531;28;20251;-59
2022/06/17 12:13:43;;;;;;;13.10;3.08;;;32.20;99.90;;;;;;5033647;28;20210;-58
2022/06/17 12:16:19;;;;;;;13.95;3.60;;;32.50;99.90;;;;;;5036568;28;20588;-58
2022/06/17 12:18:57;;;;;;;10.88;3.13;;;33.00;99.90;;;;;;5042376;28;20246;-58
2022/06/17 12:21:25;;;;;;;11.75;2.80;;;32.80;99.90;;;;;;5053257;28;20180;-58
2022/06/17 12:24:07;;;;;;;12.70;3.20;;;33.10;99.90;;;;;;5052953;28;20247;-58
2022/06/17 12:26:50;;;;;;;11.55;3.08;;;33.80;99.90;;;;;;5053360;28;20169;-58
2022/06/17 12:30:01;;;;;;;6.60;2.85;;;33.70;99.90;;;;;;5053218;28;20184;-59
2022/06/17 12:32:42;;;;;;;11.02;2.80;;;33.90;99.90;;;;;;5053108;28;20191;-59
2022/06/17 12:35:16;;;;;;;9.93;2.90;;;34.20;99.90;;;;;;5052794;28;20197;-58
2022/06/17 12:38:00;;;;;;;10.85;2.72;;;34.30;99.90;;;;;;5052099;28;20169;-59
2022/06/17 12:40:34;;;;;;;9.35;2.78;;;34.60;99.90;;;;;;5053217;28;20196;-59
2022/06/17 12:43:26;;;;;;;10.43;3.15;;;34.60;99.90;;;;;;5053086;28;20303;-59
2022/06/17 12:46:01;;;;;;;8.27;3.20;;;34.50;99.90;;;;;;5024743;28;20185;-59
2022/06/17 12:48:26;;;;;;;8.48;3.22;;;34.60;99.90;;;;;;5052890;28;20177;-58
2022/06/17 12:54:01;;;;;;;5.78;2.50;;;34.00;99.90;;;;;;5052630;28;20286;-59
2022/06/17 12:56:42;;;;;;;7.38;2.58;;;34.10;99.90;;;;;;5052551;28;20185;-58
2022/06/17 12:59:38;;;;;;;9.75;2.88;;;34.10;99.90;;;;;;5052834;28;20875;-59
2022/06/17 13:02:07;;;;;;;7.22;2.67;;;33.60;99.90;;;;;;5052648;28;20235;-59
2022/06/17 13:04:50;;;;;;;12.98;3.30;;;33.20;99.90;;;;;;5052600;28;20181;-59
2022/06/17 13:07:23;;;;;;;9.57;3.05;;;33.20;99.90;;;;;;5052490;28;20157;-59
2022/06/17 13:09:58;;;;;;;16.15;3.35;;;32.90;99.90;;;;;;5052386;28;20175;-59
2022/06/17 13:12:38;;;;;;;12.15;2.53;;;33.20;99.90;;;;;;5052344;28;20223;-59
2022/06/17 13:15:27;;;;;;;8.55;2.88;;;33.40;99.90;;;;;;5052403;28;20214;-60
2022/06/17 13:17:54;;;;;;;13.15;3.47;;;32.60;99.90;;;;;;5051714;28;20186;-59
2022/06/17 13:20:40;;;;;;;12.25;2.85;;;33.20;99.90;;;;;;5052442;28;20315;-59
2022/06/17 13:23:32;;;;;;;10.63;2.83;;;33.20;99.90;;;;;;5052239;28;20169;-60
2022/06/17 13:26:23;;;;;;;8.90;2.75;;;33.40;99.90;;;;;;5051990;28;20238;-59
2022/06/17 13:29:04;;;;;;;10.63;2.75;;;33.90;99.90;;;;;;5052040;28;20173;-59
2022/06/17 13:31:48;;;;;;;14.20;3.22;;;34.10;99.90;;;;;;5051921;28;20294;-59